createdAt,value
2018-12-05T00:01:06.789Z,6.94
2018-12-05T00:03:35.049Z,6.95
2018-12-05T00:06:03.234Z,6.95
2018-12-05T00:08:31.360Z,6.93
2018-12-05T00:10:59.537Z,6.91
2018-12-05T00:13:27.817Z,6.89
2018-12-05T00:15:55.992Z,6.84
2018-12-05T00:18:24.208Z,6.79
2018-12-05T00:20:52.349Z,6.75
2018-12-05T00:23:20.514Z,6.74
2018-12-05T00:25:48.680Z,6.71
2018-12-05T00:28:16.864Z,6.66
2018-12-05T00:30:45.242Z,6.61
2018-12-05T00:33:13.422Z,6.61
2018-12-05T00:35:41.713Z,6.62
2018-12-05T00:38:09.975Z,6.62
2018-12-05T00:40:38.879Z,6.58
2018-12-05T00:43:07.196Z,6.57
2018-12-05T00:45:35.312Z,6.57
2018-12-05T00:48:03.796Z,6.59
2018-12-05T00:50:32.082Z,6.60
2018-12-05T00:53:00.910Z,6.60
2018-12-05T00:55:29.929Z,6.61
2018-12-05T00:57:58.117Z,6.62
2018-12-05T01:00:26.321Z,6.59
2018-12-05T01:02:54.468Z,6.56
2018-12-05T01:05:22.745Z,6.56
2018-12-05T01:07:51.133Z,6.56
2018-12-05T01:10:20.541Z,6.57
2018-12-05T01:12:48.761Z,6.58
2018-12-05T01:15:17.072Z,6.59
2018-12-05T01:17:45.249Z,6.59
2018-12-05T01:20:13.645Z,6.61
2018-12-05T01:22:41.822Z,6.61
2018-12-05T01:25:09.705Z,6.61
2018-12-05T01:27:37.351Z,6.60
2018-12-05T01:30:05.602Z,6.58
2018-12-05T01:32:33.817Z,6.58
2018-12-05T01:35:02.056Z,6.58
2018-12-05T01:37:30.225Z,6.58
2018-12-05T01:39:58.393Z,6.58
2018-12-05T01:42:26.645Z,6.55
2018-12-05T01:44:56.958Z,6.49
2018-12-05T01:47:25.350Z,6.42
2018-12-05T01:49:53.569Z,6.38
2018-12-05T01:52:21.845Z,6.31
2018-12-05T01:54:50.022Z,6.27
2018-12-05T01:57:18.187Z,6.23
2018-12-05T01:59:46.448Z,6.17
2018-12-05T02:02:14.676Z,6.13
2018-12-05T02:04:42.909Z,6.08
2018-12-05T02:07:11.077Z,6.06
2018-12-05T02:09:39.535Z,6.10
2018-12-05T02:12:13.507Z,6.11
2018-12-05T02:14:42.349Z,6.07
2018-12-05T02:17:10.533Z,6.08
2018-12-05T02:19:38.701Z,6.06
2018-12-05T02:22:07.313Z,6.03
2018-12-05T02:24:35.677Z,6.05
2018-12-05T02:27:03.943Z,6.06
2018-12-05T02:29:37.564Z,6.10
2018-12-05T02:32:05.845Z,6.10
2018-12-05T02:34:34.084Z,6.09
2018-12-05T02:37:02.341Z,6.11
2018-12-05T02:39:30.559Z,6.12
2018-12-05T02:41:58.813Z,6.11
2018-12-05T02:44:26.997Z,6.12
2018-12-05T02:46:55.282Z,6.13
2018-12-05T02:49:23.632Z,6.13
2018-12-05T02:51:51.834Z,6.17
2018-12-05T02:54:20.089Z,6.17
2018-12-05T02:56:48.273Z,6.16
2018-12-05T02:59:16.521Z,6.16
2018-12-05T03:01:44.730Z,6.18
2018-12-05T03:04:13.709Z,6.17
2018-12-05T03:06:41.920Z,6.12
2018-12-05T03:09:10.157Z,6.09
2018-12-05T03:11:38.359Z,6.06
2018-12-05T03:14:06.609Z,6.05
2018-12-05T03:16:34.797Z,6.06
2018-12-05T03:19:03.019Z,6.04
2018-12-05T03:21:31.318Z,6.03
2018-12-05T03:23:59.464Z,6.00
2018-12-05T03:26:27.673Z,5.99
2018-12-05T03:28:55.907Z,5.97
2018-12-05T03:31:24.195Z,5.97
2018-12-05T03:33:52.436Z,5.95
2018-12-05T03:36:20.681Z,5.94
2018-12-05T03:38:48.952Z,5.90
2018-12-05T03:41:17.182Z,5.88
2018-12-05T03:43:45.471Z,5.89
2018-12-05T03:46:13.719Z,5.90
2018-12-05T03:48:42.065Z,5.92
2018-12-05T03:51:10.231Z,5.90
2018-12-05T03:53:38.510Z,5.87
2018-12-05T03:56:06.790Z,5.82
2018-12-05T03:58:35.096Z,5.80
2018-12-05T04:01:03.332Z,5.77
2018-12-05T04:03:31.514Z,5.71
2018-12-05T04:05:59.690Z,5.69
2018-12-05T04:08:27.858Z,5.65
2018-12-05T04:10:56.045Z,5.63
2018-12-05T04:13:24.273Z,5.63
2018-12-05T04:15:52.589Z,5.61
2018-12-05T04:18:20.766Z,5.58
2018-12-05T04:20:48.962Z,5.58
2018-12-05T04:23:17.198Z,5.60
2018-12-05T04:25:45.458Z,5.60
2018-12-05T04:28:13.701Z,5.61
2018-12-05T04:30:41.968Z,5.63
2018-12-05T04:33:10.169Z,5.65
2018-12-05T04:35:38.289Z,5.70
2018-12-05T04:38:06.466Z,5.69
2018-12-05T04:40:34.743Z,5.66
2018-12-05T04:43:02.918Z,5.70
2018-12-05T04:45:31.345Z,5.73
2018-12-05T04:47:59.493Z,5.72
2018-12-05T04:50:27.652Z,5.71
2018-12-05T04:52:56.002Z,5.66
2018-12-05T04:55:24.182Z,5.63
2018-12-05T04:57:53.266Z,5.59
2018-12-05T05:00:21.573Z,5.51
2018-12-05T05:02:49.856Z,5.46
2018-12-05T05:05:19.022Z,5.40
2018-12-05T05:07:47.222Z,5.35
2018-12-05T05:10:16.575Z,5.33
2018-12-05T05:12:45.393Z,5.33
2018-12-05T05:15:13.671Z,5.38
2018-12-05T05:17:41.945Z,5.44
2018-12-05T05:20:11.952Z,5.46
2018-12-05T05:22:40.318Z,5.45
2018-12-05T05:25:08.580Z,5.42
2018-12-05T05:27:37.972Z,5.44
2018-12-05T05:30:06.728Z,5.51
2018-12-05T05:32:34.965Z,5.53
2018-12-05T05:35:03.370Z,5.60
2018-12-05T05:37:31.560Z,5.65
2018-12-05T05:39:59.789Z,5.68
2018-12-05T05:42:27.977Z,5.73
2018-12-05T05:44:56.137Z,5.79
2018-12-05T05:47:24.461Z,5.86
2018-12-05T05:49:52.624Z,5.89
2018-12-05T05:52:20.875Z,5.93
2018-12-05T05:54:49.042Z,5.97
2018-12-05T05:57:17.265Z,5.99
2018-12-05T05:59:45.547Z,6.03
2018-12-05T06:02:13.896Z,6.04
2018-12-05T06:04:42.037Z,6.06
2018-12-05T06:07:10.224Z,6.07
2018-12-05T06:09:38.365Z,6.08
2018-12-05T06:12:06.862Z,6.11
2018-12-05T06:14:35.045Z,6.15
2018-12-05T06:17:03.469Z,6.15
2018-12-05T06:19:31.706Z,6.16
2018-12-05T06:22:00.913Z,6.18
2018-12-05T06:24:30.846Z,6.22
2018-12-05T06:26:59.225Z,6.24
2018-12-05T06:29:27.416Z,6.26
2018-12-05T06:31:55.698Z,6.29
2018-12-05T06:34:24.006Z,6.32
2018-12-05T06:36:52.237Z,6.33
2018-12-05T06:39:21.395Z,6.34
2018-12-05T06:41:49.673Z,6.35
2018-12-05T06:44:17.845Z,6.34
2018-12-05T06:46:46.154Z,6.35
